Data for 09/17/2014

Time Sea-Level Adjusted Pressure Absolute Pressure Temperature Relative Humidity Dew Point   
(mb) (inHg) (mb) (inHg) (C) (F) (%) (C) (F)
00:05 1019 30.09 848 25.04 14.9 58.8 57 6.4 43.6
00:10 1018 30.06 847 25.01 14.8 58.6 56 6.1 42.9
00:15 1019 30.09 848 25.04 15.3 59.5 57 7 44.5
00:20 1019 30.09 848 25.04 15.3 59.5 57 7 44.6
00:25 1019 30.09 849 25.07 15.2 59.4 58 7.2 45
00:30 1019 30.09 848 25.04 15.3 59.5 60 7.7 45.8
00:35 1019 30.09 848 25.04 15.2 59.3 61 7.8 46
00:40 1019 30.09 848 25.04 14.9 58.7 62 7.8 46
00:45 1018 30.06 848 25.04 14.7 58.4 63 7.8 46.1
00:50 1018 30.06 848 25.04 14.9 58.7 61 7.6 45.7
00:55 1018 30.06 847 25.01 15.2 59.3 59 7.4 45.2
01:00 1018 30.06 847 25.01 15.3 59.5 62 8 46.4
01:05 1018 30.06 847 25.01 14.7 58.4 63 7.7 45.9
01:10 1018 30.06 847 25.01 14.7 58.5 61 7.2 45
01:15 1018 30.06 847 25.01 15.1 59.1 59 7.1 44.9
01:20 1018 30.06 847 25.01 15.5 59.8 57 7 44.6
01:25 1018 30.06 847 25.01 15.8 60.4 57 7.3 45.1
01:30 1018 30.06 847 25.01 15.5 59.8 59 7.5 45.6
01:35 1018 30.06 847 25.01 15.3 59.5 59 7.4 45.3
01:40 1018 30.06 847 25.01 15.2 59.4 58 7.2 44.9
01:45 1018 30.06 847 25.01 15.3 59.6 58 7.2 45
01:50 1018 30.06 847 25.01 15.2 59.4 59 7.3 45.1
01:55 1018 30.06 847 25.01 15.1 59.1 60 7.4 45.3
02:00 1018 30.06 847 25.01 14.8 58.7 61 7.4 45.3
02:05 1018 30.06 847 25.01 14.7 58.5 61 7.4 45.3
02:10 1018 30.06 847 25.01 14.7 58.4 62 7.5 45.5
02:15 1018 30.06 847 25.01 14.7 58.4 61 7.3 45.1
02:20 1018 30.06 847 25.01 14.9 58.8 61 7.5 45.5
02:25 1018 30.06 847 25.01 14.9 58.7 61 7.4 45.4
02:30 1018 30.06 847 25.01 14.8 58.6 60 7.3 45.1
02:35 1018 30.06 847 25.01 14.9 58.8 60 7.3 45.2
02:40 1018 30.06 847 25.01 14.8 58.7 60 7.3 45.1
02:45 1018 30.06 847 25.01 14.7 58.5 61 7.3 45.2
02:50 1018 30.06 847 25.01 14.7 58.5 61 7.5 45.4
02:55 1018 30.06 847 25.01 15 59 59 7.2 44.9
03:00 1018 30.06 847 25.01 15.1 59.3 59 7.3 45.1
03:05 1018 30.06 847 25.01 15.1 59.1 59 7.3 45.1
03:10 1018 30.06 847 25.01 14.9 58.8 60 7.3 45.1
03:15 1018 30.06 847 25.01 14.6 58.3 63 7.7 45.9
03:20 1018 30.06 847 25.01 14 57.2 68 8.1 46.6
03:25 1018 30.06 847 25.01 13.4 56 68 7.6 45.6
03:30 1018 30.06 847 25.01 13.3 55.9 67 7.4 45.3
03:35 1018 30.06 847 25.01 13.2 55.8 68 7.4 45.4
03:40 1018 30.06 847 25.01 13.3 55.9 69 7.7 45.9
03:45 1018 30.06 847 25.01 13 55.3 67 6.9 44.5
03:50 1018 30.06 847 25.01 12.9 55.3 68 7.3 45.1
03:55 1018 30.06 847 25.01 12.9 55.2 69 7.4 45.3
04:00 1018 30.06 847 25.01 12.6 54.7 70 7.3 45.1
04:05 1018 30.06 847 25.01 12.6 54.6 65 6.3 43.4
04:10 1018 30.06 847 25.01 12.4 54.3 66 6.2 43.2
04:15 1018 30.06 847 25.01 12.5 54.4 65 6.1 43.1
04:20 1018 30.06 847 25.01 12.5 54.6 64 6 42.7
04:25 1018 30.06 847 25.01 12.5 54.6 65 6.2 43.2
04:30 1018 30.06 847 25.01 12.2 54 66 6.2 43.1
04:35 1018 30.06 847 25.01 11.8 53.3 68 6.2 43.2
04:40 1018 30.06 847 25.01 11.5 52.7 71 6.4 43.6
04:45 1018 30.06 847 25.01 11.2 52.2 72 6.4 43.6
04:50 1018 30.06 847 25.01 11.7 53 70 6.3 43.4
04:55 1018 30.06 847 25.01 12.1 53.8 69 6.6 43.8
05:00 1018 30.06 847 25.01 12.4 54.3 65 6.1 43
05:05 1018 30.06 847 25.01 12.6 54.6 66 6.3 43.4
05:10 1018 30.06 847 25.01 12.9 55.2 63 6 42.8
05:15 1018 30.06 847 25.01 12.7 54.8 65 6.3 43.3
05:20 1018 30.06 847 25.01 12.4 54.3 66 6.2 43.1
05:25 1018 30.06 847 25.01 12.2 53.9 64 5.7 42.2
05:30 1018 30.06 847 25.01 12 53.6 66 5.9 42.5
05:35 1018 30.06 847 25.01 11.8 53.2 67 6 42.7
05:40 1018 30.06 847 25.01 11.6 52.9 69 6.1 43
05:45 1018 30.06 847 25.01 11.5 52.7 69 6 42.8
05:50 1018 30.06 847 25.01 11.4 52.5 69 6 42.8
05:55 1018 30.06 847 25.01 11.1 52 70 5.9 42.6
06:00 1018 30.06 847 25.01 11.1 51.9 69 5.7 42.3
06:05 1018 30.06 847 25.01 11.2 52.1 69 5.8 42.5
06:10 1018 30.06 847 25.01 11.3 52.4 69 5.8 42.4
06:15 1018 30.06 847 25.01 11.8 53.2 66 5.7 42.3
06:20 1018 30.06 847 25.01 12.2 53.9 65 5.7 42.3
06:25 1018 30.06 847 25.01 12.2 53.9 65 5.8 42.5
06:30 1018 30.06 848 25.04 11.9 53.5 65 5.5 42
06:35 1018 30.06 847 25.01 11.8 53.2 66 5.6 42
06:40 1018 30.06 847 25.01 11.7 53.1 66 5.7 42.2
06:45 1018 30.06 847 25.01 11.8 53.2 66 5.8 42.4
06:50 1018 30.06 848 25.04 11.7 53.1 68 6 42.8
06:55 1018 30.06 848 25.04 11.8 53.2 67 6 42.8
07:00 1018 30.06 848 25.04 12.1 53.7 66 6 42.9
07:05 1018 30.06 848 25.04 12.2 53.9 67 6.2 43.1
07:10 1018 30.06 848 25.04 12.3 54.2 66 6.1 43
07:15 1018 30.06 848 25.04 12.6 54.8 65 6.3 43.3
07:20 1018 30.06 848 25.04 13 55.3 64 6.4 43.4
07:25 1018 30.06 848 25.04 13.1 55.6 64 6.6 43.8
07:30 1018 30.06 848 25.04 13.3 56 64 6.6 44
07:35 1018 30.06 848 25.04 13.6 56.5 63 6.7 44.1
07:40 1018 30.06 848 25.04 14.2 57.5 60 6.7 44
07:45 1018 30.06 848 25.04 14.5 58 61 7 44.6
07:50 1018 30.06 848 25.04 14.9 58.7 59 7 44.5
07:55 1018 30.06 848 25.04 15.2 59.4 58 7.1 44.8
08:00 1018 30.06 848 25.04 15.6 60.1 56 7.1 44.7
08:05 1018 30.06 848 25.04 16.1 61 56 7.5 45.5
08:10 1019 30.09 848 25.04 16.5 61.6 54 7.3 45.1
08:15 1018 30.06 848 25.04 16.5 61.6 55 7.4 45.3
08:20 1019 30.09 848 25.04 16.3 61.3 54 7.1 44.8
08:25 1018 30.06 848 25.04 16.4 61.5 55 7.6 45.6
08:30 1018 30.06 848 25.04 16.9 62.4 54 7.7 45.9
08:35 1018 30.06 848 25.04 17.1 62.9 53 7.6 45.8
08:40 1018 30.06 848 25.04 17.3 63.2 53 7.9 46.2
08:45 1018 30.06 848 25.04 18.1 64.6 50 7.5 45.5
08:50 1018 30.06 848 25.04 18.1 64.6 50 7.6 45.7
08:55 1018 30.06 847 25.01 18.9 66 48 7.9 46.2
09:00 1018 30.06 847 25.01 19.2 66.6 46 7.6 45.7
09:05 1018 30.06 847 25.01 19 66.2 48 7.9 46.1
09:10 1018 30.06 848 25.04 19 66.3 49 8.1 46.6
09:15 1018 30.06 848 25.04 19.4 66.9 46 7.6 45.7
09:20 1018 30.06 848 25.04 19.9 67.8 45 7.7 45.9
09:25 1018 30.06 847 25.01 20.2 68.4 43 7.5 45.6
09:30 1018 30.06 847 25.01 20.1 68.2 45 8 46.4
09:35 1018 30.06 847 25.01 20.2 68.3 43 7.3 45.1
09:40 1018 30.06 847 25.01 20.4 68.8 44 8 46.4
09:45 1018 30.06 847 25.01 20 68 45 7.9 46.2
09:50 1018 30.06 847 25.01 20.1 68.1 45 7.9 46.3
09:55 1018 30.06 847 25.01 20.1 68.1 45 8 46.3
10:00 1018 30.06 847 25.01 20.3 68.5 45 8.1 46.6
10:05 1018 30.06 847 25.01 20 68 46 8.1 46.6
10:10 1018 30.06 847 25.01 19.9 67.8 46 8.1 46.7
10:15 1018 30.06 847 25.01 20.4 68.8 43 7.6 45.8
10:20 1018 30.06 847 25.01 20.6 69.2 45 8.4 47.1
10:25 1018 30.06 847 25.01 20.9 69.7 44 8.3 46.9
10:30 1018 30.06 847 25.01 21.2 70.2 42 8 46.3
10:35 1018 30.06 847 25.01 22.1 71.8 39 7.9 46.1
10:40 1018 30.06 847 25.01 22.7 72.8 38 7.7 45.8
10:45 1018 30.06 847 25.01 23.2 73.8 37 7.8 46
10:50 1018 30.06 847 25.01 22.7 72.8 39 8.1 46.5
10:55 1018 30.06 847 25.01 22.2 71.9 39 7.8 46
11:00 1018 30.06 847 25.01 23.1 73.5 37 7.9 46.2
11:05 1018 30.06 847 25.01 22.8 73.1 37 7.4 45.4
11:10 1018 30.06 847 25.01 22.7 72.8 37 7.5 45.5
11:15 1018 30.06 847 25.01 23.3 74 37 8.1 46.6
11:20 1018 30.06 847 25.01 23.4 74.1 38 8.3 46.9
11:25 1018 30.06 847 25.01 23.1 73.6 38 8.1 46.6
11:30 1017 30.03 847 25.01 23 73.5 39 8.6 47.5
11:35 1017 30.03 847 25.01 23.4 74.1 37 8.2 46.8
11:40 1017 30.03 847 25.01 24.1 75.4 35 7.9 46.2
11:45 1017 30.03 847 25.01 24.5 76.2 35 8.5 47.2
11:50 1017 30.03 846 24.98 24.3 75.7 34 7.4 45.4
11:55 1017 30.03 846 24.98 24.1 75.4 36 8.4 47.1
12:00 1017 30.03 846 24.98 24.1 75.3 33 6.8 44.3
12:05 1017 30.03 846 24.98 24 75.1 34 7.2 45
12:10 1017 30.03 846 24.98 24.4 75.9 31 6.6 43.9
12:15 1017 30.03 846 24.98 25.1 77.2 29 6.3 43.3
12:20 1017 30.03 846 24.98 25.9 78.7 29 6.6 43.9
12:25 1017 30.03 846 24.98 25.6 78.1 26 4.9 40.9
12:30 1017 30.03 846 24.98 25.4 77.7 27 5.1 41.1
12:35 1017 30.03 846 24.98 26.4 79.6 27 6 42.8
12:40 1017 30.03 846 24.98 26 78.9 28 6.3 43.4
12:45 1017 30.03 846 24.98 26 78.9 26 5.3 41.5
12:50 1017 30.03 846 24.98 26 78.8 26 5.1 41.1
12:55 1017 30.03 846 24.98 26.3 79.4 27 6 42.9
13:00 1016 30 846 24.98 26.8 80.2 27 6.4 43.6
13:05 1016 30 846 24.98 26.2 79.2 27 5.8 42.5
13:10 1016 30 846 24.98 27 80.5 26 6 42.9
13:15 1016 30 846 24.98 27.4 81.4 23 4.9 40.9
13:20 1016 30 846 24.98 26.5 79.6 24 4.6 40.3
13:25 1016 30 846 24.98 26.4 79.4 24 4.7 40.4
13:30 1016 30 846 24.98 27.1 80.7 24 5.3 41.5
13:35 1016 30 845 24.95 27.6 81.7 21 3.6 38.4
13:40 1016 30 845 24.95 26.7 80.1 23 3.9 39.1
13:45 1016 30 845 24.95 27.6 81.6 20 3.2 37.8
13:50 1016 30 845 24.95 28.7 83.6 20 3.8 38.9
13:55 1016 30 845 24.95 29 84.1 18 2.5 36.5
14:00 1016 30 845 24.95 28.6 83.5 20 4 39.2
14:05 1016 30 845 24.95 28.3 82.9 20 3.2 37.7
14:10 1016 30 845 24.95 27.9 82.1 19 2.6 36.8
14:15 1016 30 845 24.95 27.3 81.1 20 2.9 37.2
14:20 1016 30 845 24.95 27.3 81.1 21 3.2 37.7
14:25 1016 30 845 24.95 27.1 80.7 21 3.1 37.6
14:30 1016 30 845 24.95 27 80.5 22 3.7 38.7
14:35 1016 30 845 24.95 27.1 80.7 23 4.2 39.5
14:40 1016 30 845 24.95 27.8 82 21 3.9 39
14:45 1016 30 845 24.95 28 82.3 21 3.9 39
14:50 1016 30 845 24.95 27.5 81.6 21 3.9 39
14:55 1016 30 845 24.95 27.3 81.1 22 4.2 39.5
15:00 1016 30 845 24.95 27.3 81.1 22 3.9 39.1
15:05 1016 30 845 24.95 27.2 81 22 3.7 38.7
15:10 1016 30 845 24.95 27.3 81.1 23 4.4 39.9
15:15 1016 30 845 24.95 27.2 81 23 4.6 40.3
15:20 1016 30 845 24.95 27.2 80.9 23 4.5 40.1
15:25 1016 30 845 24.95 27.3 81.1 23 4.6 40.2
15:30 1016 30 845 24.95 27.2 81 24 5.4 41.7
15:35 1016 30 845 24.95 26.8 80.2 26 6.2 43.2
15:40 1016 30 845 24.95 26.6 79.8 26 6 42.8
15:45 1016 30 845 24.95 26.3 79.3 28 6.5 43.7
15:50 1016 30 845 24.95 26.4 79.4 27 6.2 43.1
15:55 1016 30 845 24.95 26.3 79.4 28 6.6 43.9
16:00 1016 30 845 24.95 26.2 79.1 29 7.1 44.8
16:05 1016 30 845 24.95 26.1 79 31 7.8 46.1
16:10 1016 30 845 24.95 25.9 78.6 30 7.4 45.2
16:15 1016 30 845 24.95 25.7 78.2 30 7.2 44.9
16:20 1016 30 845 24.95 25.5 78 31 7.3 45.2
16:25 1016 30 845 24.95 25.4 77.7 29 6.5 43.7
16:30 1016 30 846 24.98 24.9 76.8 36 9.2 48.6
16:35 1016 30 846 24.98 24.6 76.2 29 5.8 42.5
16:40 1016 30 846 24.98 24.8 76.7 29 5.7 42.3
16:45 1016 30 846 24.98 24.8 76.7 29 5.6 42.1
16:50 1016 30 846 24.98 25 77 29 5.9 42.7
16:55 1016 30 845 24.95 25.2 77.3 29 5.9 42.6
17:00 1016 30 845 24.95 25.1 77.1 30 6.5 43.7
17:05 1016 30 845 24.95 24.9 76.8 30 6.5 43.7
17:10 1016 30 845 24.95 24.7 76.5 31 6.5 43.8
17:15 1016 30 846 24.98 24.6 76.3 29 5.8 42.4
17:20 1016 30 846 24.98 24.6 76.3 29 5.8 42.5
17:25 1017 30.03 846 24.98 24.4 75.9 32 6.8 44.2
17:30 1017 30.03 846 24.98 24.3 75.7 25 3.1 37.5
17:35 1016 30 846 24.98 24.7 76.4 23 2.4 36.3
17:40 1016 30 846 24.98 24.9 76.9 23 2.8 37
17:45 1016 30 846 24.98 24.9 76.8 27 4.7 40.5
17:50 1016 30 845 24.95 24.6 76.2 29 5.5 41.9
17:55 1016 30 845 24.95 24.1 75.4 30 5.6 42.1
18:00 1016 30 845 24.95 23.9 74.9 30 5.7 42.2
18:05 1016 30 845 24.95 23.8 74.8 31 5.9 42.7
18:10 1016 30 845 24.95 23.6 74.6 31 5.9 42.7
18:15 1016 30 845 24.95 23.6 74.5 28 4.4 40
18:20 1016 30 845 24.95 23.6 74.5 30 5.2 41.4
18:25 1016 30 845 24.95 23.2 73.8 33 6.3 43.4
18:30 1016 30 845 24.95 22.7 72.9 34 6.1 43
18:35 1016 30 845 24.95 22.5 72.6 33 5.8 42.5
18:40 1016 30 845 24.95 22.6 72.8 32 5.2 41.4
18:45 1016 30 845 24.95 22.7 72.9 31 5 41.1
18:50 1016 30 845 24.95 22.9 73.1 33 6.2 43.1
18:55 1016 30 845 24.95 22.1 71.7 36 6.5 43.8
19:00 1016 30 845 24.95 21.3 70.4 37 6.4 43.4
19:05 1016 30 845 24.95 20.9 69.7 38 6.1 43
19:10 1016 30 845 24.95 20.8 69.5 42 7.5 45.4
19:15 1016 30 845 24.95 20.6 69 40 6.8 44.3
19:20 1016 30 845 24.95 20.2 68.4 44 7.8 46
19:25 1016 30 845 24.95 19.9 67.8 42 6.7 44.1
19:30 1016 30 845 24.95 19.5 67.1 45 7.3 45.2
19:35 1016 30 845 24.95 18.9 66 45 6.8 44.3
19:40 1016 30 845 24.95 18.8 65.8 45 6.6 43.8
19:45 1016 30 845 24.95 18.7 65.6 43 6.1 42.9
19:50 1016 30 845 24.95 18.7 65.7 43 5.9 42.6
19:55 1016 30 845 24.95 19 66.2 41 5.7 42.3
20:00 1016 30 845 24.95 19.1 66.3 44 6.7 44.1
20:05 1016 30 845 24.95 19.2 66.5 39 5 41
20:10 1016 30 845 24.95 19.4 66.9 39 5.3 41.6
20:15 1016 30 845 24.95 18.8 65.8 43 6.1 42.9
20:20 1016 30 845 24.95 18.2 64.7 45 6.1 43.1
20:25 1016 30 845 24.95 17.8 64.1 44 5.4 41.7
20:30 1016 30 845 24.95 17.8 64.1 44 5.7 42.2
20:35 1016 30 845 24.95 17.7 63.9 43 5 41.1
20:40 1016 30 845 24.95 18.2 64.8 42 5.2 41.4
20:45 1016 30 845 24.95 18.1 64.6 42 5.2 41.4
20:50 1016 30 845 24.95 18.1 64.6 41 4.6 40.3
20:55 1016 30 845 24.95 18.2 64.8 41 4.7 40.5
21:00 1016 30 845 24.95 18.4 65 40 4.7 40.4
21:05 1016 30 845 24.95 18.3 65 40 4.7 40.5
21:10 1016 30 845 24.95 18.2 64.8 41 4.8 40.6
21:15 1016 30 845 24.95 18.1 64.5 41 4.8 40.7
21:20 1016 30 845 24.95 17.9 64.1 42 4.8 40.6
21:25 1016 30 845 24.95 18 64.3 42 4.8 40.7
21:30 1015 29.97 845 24.95 18 64.3 41 4.5 40.1
21:35 1015 29.97 845 24.95 18.2 64.7 41 5 41
21:40 1015 29.97 845 24.95 17.8 64.1 43 5.3 41.6
21:45 1015 29.97 845 24.95 17.5 63.6 43 5 41
21:50 1015 29.97 845 24.95 17.3 63.2 43 4.8 40.6
21:55 1015 29.97 844 24.92 17.3 63.1 43 4.7 40.5
22:00 1015 29.97 844 24.92 17.4 63.3 43 4.8 40.7
22:05 1015 29.97 844 24.92 17.2 63 45 5.3 41.5
22:10 1015 29.97 844 24.92 17 62.7 44 5 40.9
22:15 1015 29.97 844 24.92 16.9 62.4 44 4.6 40.4
22:20 1015 29.97 844 24.92 17 62.6 44 4.7 40.4
22:25 1015 29.97 844 24.92 17.1 62.9 43 4.6 40.3
22:30 1015 29.97 844 24.92 17.3 63.1 43 4.8 40.7
22:35 1015 29.97 844 24.92 17.2 62.9 43 4.6 40.3
22:40 1015 29.97 844 24.92 17.2 63 43 4.7 40.4
22:45 1015 29.97 844 24.92 17.3 63.2 42 4.3 39.7
22:50 1015 29.97 844 24.92 17.5 63.5 42 4.7 40.4
22:55 1015 29.97 844 24.92 17.4 63.2 42 4.5 40.2
23:00 1015 29.97 844 24.92 17.6 63.6 42 4.7 40.5
23:05 1015 29.97 844 24.92 17.4 63.3 42 4.5 40.1
23:10 1015 29.97 844 24.92 17.7 63.8 41 4.5 40.1
23:15 1015 29.97 844 24.92 17.7 63.9 42 4.7 40.5
23:20 1015 29.97 844 24.92 17.7 63.8 44 5.3 41.6
23:25 1015 29.97 844 24.92 17.7 63.9 42 4.8 40.6
23:30 1015 29.97 844 24.92 17.7 63.8 42 4.6 40.4
23:35 1015 29.97 844 24.92 17.7 63.8 42 4.6 40.3
23:40 1015 29.97 844 24.92 17.6 63.6 42 4.8 40.7
23:45 1015 29.97 844 24.92 17.5 63.6 43 4.9 40.7
23:50 1015 29.97 844 24.92 17.5 63.4 43 4.9 40.7
23:55 1015 29.97 844 24.92 17.4 63.3 42 4.6 40.3
24:00 1014 29.94 844 24.92 17.7 63.8 42 4.9 40.7